createdAt,value
2022-08-28T00:00:32.704Z,24.73
2022-08-28T00:03:17.359Z,24.73
2022-08-28T00:05:51.354Z,24.74
2022-08-28T00:08:45.257Z,24.73
2022-08-28T00:11:18.574Z,24.71
2022-08-28T00:13:52.462Z,24.70
2022-08-28T00:16:27.064Z,24.70
2022-08-28T00:19:02.188Z,24.69
2022-08-28T00:21:37.430Z,24.68
2022-08-28T00:24:11.305Z,24.68
2022-08-28T00:27:23.310Z,24.68
2022-08-28T00:29:56.669Z,24.64
2022-08-28T00:32:50.349Z,24.58
2022-08-28T00:35:25.093Z,24.53
2022-08-28T00:38:01.672Z,24.51
2022-08-28T00:40:40.104Z,24.47
2022-08-28T00:43:23.811Z,24.45
2022-08-28T00:45:57.444Z,24.45
2022-08-28T00:48:31.460Z,24.41
2022-08-28T00:51:23.780Z,24.37
2022-08-28T00:54:08.217Z,24.20
2022-08-28T00:56:43.579Z,24.09
2022-08-28T00:59:19.348Z,24.07
2022-08-28T01:01:56.852Z,24.06
2022-08-28T01:04:33.869Z,24.09
2022-08-28T01:07:13.172Z,24.10
2022-08-28T01:09:51.019Z,24.11
2022-08-28T01:12:27.078Z,24.13
2022-08-28T01:15:10.954Z,24.06
2022-08-28T01:17:53.109Z,23.97
2022-08-28T01:20:30.903Z,23.97
2022-08-28T01:23:10.996Z,23.98
2022-08-28T01:25:45.178Z,23.91
2022-08-28T01:28:19.111Z,23.87
2022-08-28T01:30:56.545Z,23.83
2022-08-28T01:33:30.467Z,23.77
2022-08-28T01:36:04.479Z,23.76
2022-08-28T01:38:38.810Z,23.77
2022-08-28T01:41:15.244Z,23.79
2022-08-28T01:43:49.310Z,23.80
2022-08-28T01:46:22.867Z,23.84
2022-08-28T01:48:56.308Z,23.88
2022-08-28T01:51:29.932Z,23.84
2022-08-28T01:54:09.955Z,23.80
2022-08-28T01:56:46.016Z,23.76
2022-08-28T01:59:19.827Z,23.79
2022-08-28T02:01:55.597Z,23.77
2022-08-28T02:04:29.637Z,23.78
2022-08-28T02:07:05.829Z,23.78
2022-08-28T02:09:39.148Z,23.77
2022-08-28T02:12:16.113Z,23.76
2022-08-28T02:14:53.580Z,23.74
2022-08-28T02:17:27.715Z,23.90
2022-08-28T02:20:01.326Z,24.00
2022-08-28T02:22:35.154Z,24.02
2022-08-28T02:25:11.899Z,24.06
2022-08-28T02:27:45.763Z,23.85
2022-08-28T02:30:20.547Z,23.60
2022-08-28T02:32:54.683Z,23.57
2022-08-28T02:35:28.537Z,23.54
2022-08-28T02:38:03.084Z,23.47
2022-08-28T02:40:39.823Z,23.37
2022-08-28T02:43:13.707Z,23.27
2022-08-28T02:45:47.127Z,23.22
2022-08-28T02:48:22.430Z,23.18
2022-08-28T02:51:00.873Z,23.19
2022-08-28T02:53:35.470Z,23.20
2022-08-28T02:56:09.886Z,23.19
2022-08-28T02:58:43.793Z,23.19
2022-08-28T03:01:20.174Z,23.18
2022-08-28T03:03:54.117Z,23.04
2022-08-28T03:06:30.763Z,22.88
2022-08-28T03:09:04.335Z,22.74
2022-08-28T03:11:38.222Z,22.70
2022-08-28T03:14:11.907Z,22.65
2022-08-28T03:16:45.539Z,22.60
2022-08-28T03:19:19.109Z,22.60
2022-08-28T03:21:53.250Z,22.64
2022-08-28T03:24:26.747Z,22.65
2022-08-28T03:27:02.193Z,22.65
2022-08-28T03:29:35.971Z,22.62
2022-08-28T03:32:10.067Z,22.57
2022-08-28T03:34:43.708Z,22.48
2022-08-28T03:37:17.570Z,22.42
2022-08-28T03:39:54.260Z,22.45
2022-08-28T03:42:27.816Z,22.49
2022-08-28T03:45:01.552Z,22.54
2022-08-28T03:47:36.996Z,22.51
2022-08-28T03:50:31.782Z,22.51
2022-08-28T03:53:05.433Z,22.50
2022-08-28T03:55:41.512Z,22.53
2022-08-28T03:58:35.232Z,22.52
2022-08-28T04:01:08.691Z,22.55
2022-08-28T04:04:03.267Z,22.58
2022-08-28T04:06:36.850Z,22.59
2022-08-28T04:09:11.276Z,22.57
2022-08-28T04:11:45.257Z,22.59
2022-08-28T04:14:18.813Z,22.58
2022-08-28T04:16:52.520Z,22.54
2022-08-28T04:19:26.399Z,22.50
2022-08-28T04:21:59.783Z,22.44
2022-08-28T04:24:33.664Z,22.41
2022-08-28T04:27:09.913Z,22.33
2022-08-28T04:29:46.073Z,22.26
2022-08-28T04:32:19.866Z,22.22
2022-08-28T04:34:54.309Z,22.20
2022-08-28T04:37:28.189Z,22.13
2022-08-28T04:40:02.300Z,22.15
2022-08-28T04:42:40.445Z,22.23
2022-08-28T04:45:15.145Z,22.26
2022-08-28T04:47:49.254Z,22.30
2022-08-28T04:50:23.013Z,22.35
2022-08-28T04:52:56.564Z,22.45
2022-08-28T04:55:45.105Z,22.51
2022-08-28T04:58:24.557Z,22.50
2022-08-28T05:00:58.355Z,22.43
2022-08-28T05:03:33.169Z,22.34
2022-08-28T05:06:06.826Z,22.20
2022-08-28T05:08:43.744Z,22.25
2022-08-28T05:11:32.936Z,22.38
2022-08-28T05:14:13.910Z,22.58
2022-08-28T05:16:58.013Z,22.71
2022-08-28T05:19:31.680Z,22.83
2022-08-28T05:22:05.513Z,23.08
2022-08-28T05:24:50.299Z,23.17
2022-08-28T05:27:24.897Z,23.25
2022-08-28T05:30:01.947Z,23.29
2022-08-28T05:32:35.919Z,23.25
2022-08-28T05:35:10.457Z,23.18
2022-08-28T05:37:44.057Z,23.15
2022-08-28T05:40:19.135Z,23.17
2022-08-28T05:42:53.239Z,23.20
2022-08-28T05:45:27.108Z,23.17
2022-08-28T05:48:00.439Z,23.19
2022-08-28T05:50:34.405Z,23.30
2022-08-28T05:53:08.128Z,23.43
2022-08-28T05:55:44.652Z,23.61
2022-08-28T05:58:31.769Z,23.74
2022-08-28T06:01:14.554Z,23.87
2022-08-28T06:03:57.416Z,23.88
2022-08-28T06:06:35.901Z,23.89
2022-08-28T06:09:15.553Z,23.92
2022-08-28T06:11:50.022Z,24.09
2022-08-28T06:14:24.227Z,24.31
2022-08-28T06:17:00.319Z,24.49
2022-08-28T06:19:40.570Z,24.87
2022-08-28T06:22:15.881Z,25.20
2022-08-28T06:24:59.324Z,25.34
2022-08-28T06:27:34.653Z,25.32
2022-08-28T06:30:21.179Z,25.47
2022-08-28T06:32:55.120Z,25.55
2022-08-28T06:35:32.345Z,25.90
2022-08-28T06:38:05.890Z,26.19
2022-08-28T06:40:44.222Z,26.70
2022-08-28T06:43:19.233Z,27.82
2022-08-28T06:45:57.813Z,29.60
2022-08-28T06:48:32.067Z,31.30
2022-08-28T06:51:09.731Z,32.61
2022-08-28T06:53:45.498Z,34.17
2022-08-28T06:56:33.794Z,35.60
2022-08-28T06:59:27.869Z,36.86
2022-08-28T07:02:06.168Z,37.83
2022-08-28T07:04:40.014Z,39.00
2022-08-28T07:07:32.436Z,40.09
2022-08-28T07:10:07.163Z,41.45
2022-08-28T07:12:42.060Z,42.34
2022-08-28T07:15:28.754Z,43.11
2022-08-28T07:18:02.587Z,43.83
2022-08-28T07:20:36.383Z,44.53
2022-08-28T07:23:09.709Z,45.16
2022-08-28T07:25:46.848Z,45.56
2022-08-28T07:28:27.883Z,45.80
2022-08-28T07:31:04.470Z,45.81
2022-08-28T07:33:39.553Z,46.19
2022-08-28T07:36:29.018Z,46.11
2022-08-28T07:39:05.371Z,46.20
2022-08-28T07:41:45.998Z,46.26
2022-08-28T07:44:38.449Z,45.60
2022-08-28T07:47:13.924Z,44.81
2022-08-28T07:49:48.771Z,44.91
2022-08-28T07:52:22.693Z,44.34
2022-08-28T07:54:56.201Z,43.19
2022-08-28T07:57:29.910Z,41.78
2022-08-28T08:00:08.515Z,40.63
2022-08-28T08:02:44.993Z,39.72
2022-08-28T08:05:18.772Z,38.88
2022-08-28T08:08:02.863Z,38.21
2022-08-28T08:10:36.889Z,37.66
2022-08-28T08:13:13.406Z,37.26
2022-08-28T08:15:50.320Z,36.92
2022-08-28T08:18:26.561Z,37.18
2022-08-28T08:21:00.367Z,38.01
2022-08-28T08:23:35.245Z,38.78
2022-08-28T08:26:10.562Z,38.54
2022-08-28T08:28:45.731Z,37.87
2022-08-28T08:31:22.057Z,37.09
2022-08-28T08:33:57.992Z,36.23
2022-08-28T08:36:33.318Z,35.56
2022-08-28T08:39:10.871Z,34.98
2022-08-28T08:41:50.259Z,34.62
2022-08-28T08:44:33.348Z,34.27
2022-08-28T08:47:15.116Z,34.13
2022-08-28T08:49:56.538Z,34.17
2022-08-28T08:52:48.876Z,34.09
2022-08-28T08:55:27.452Z,33.88
2022-08-28T08:58:12.529Z,33.81
2022-08-28T09:01:01.370Z,33.65
2022-08-28T09:04:02.670Z,33.32
2022-08-28T09:07:01.744Z,33.28
2022-08-28T09:09:38.728Z,33.23
2022-08-28T09:12:18.725Z,33.09
2022-08-28T09:15:16.298Z,32.87
2022-08-28T09:17:54.751Z,32.70
2022-08-28T09:20:32.754Z,32.64
2022-08-28T09:23:13.158Z,32.51
2022-08-28T09:26:02.026Z,32.57
2022-08-28T09:28:42.346Z,32.53
2022-08-28T09:31:19.992Z,32.36
2022-08-28T09:33:55.684Z,32.28
2022-08-28T09:36:33.450Z,32.29
2022-08-28T09:39:19.248Z,32.28
2022-08-28T09:42:25.401Z,32.15
2022-08-28T09:45:09.064Z,32.15
2022-08-28T09:47:52.141Z,32.23
2022-08-28T09:50:35.120Z,32.19
2022-08-28T09:53:23.062Z,32.07
2022-08-28T09:56:15.890Z,32.02
2022-08-28T09:58:52.692Z,31.99
2022-08-28T10:01:38.362Z,32.29
2022-08-28T10:04:30.741Z,32.84
2022-08-28T10:07:10.230Z,33.16
2022-08-28T10:09:50.931Z,33.07
2022-08-28T10:12:36.887Z,32.93
2022-08-28T10:15:26.538Z,32.88
2022-08-28T10:18:30.369Z,32.90
2022-08-28T10:21:13.651Z,32.78
2022-08-28T10:24:05.724Z,32.68
2022-08-28T10:26:47.781Z,32.65
2022-08-28T10:29:45.694Z,32.62
2022-08-28T10:32:38.658Z,32.56
2022-08-28T10:35:17.501Z,32.38
2022-08-28T10:38:01.425Z,32.30
2022-08-28T10:40:38.595Z,32.36
2022-08-28T10:43:16.684Z,32.44
2022-08-28T10:45:49.794Z,32.39
2022-08-28T10:48:27.728Z,32.27
2022-08-28T10:51:08.311Z,32.26
2022-08-28T10:53:46.187Z,32.30
2022-08-28T10:56:26.798Z,32.46
2022-08-28T10:59:09.409Z,32.52
2022-08-28T11:01:45.018Z,32.43
2022-08-28T11:04:25.677Z,32.32
2022-08-28T11:07:09.715Z,32.18
2022-08-28T11:09:49.532Z,32.14
2022-08-28T11:12:44.313Z,32.23
2022-08-28T11:15:51.746Z,32.28
2022-08-28T11:18:40.093Z,32.32
2022-08-28T11:21:23.248Z,32.37
2022-08-28T11:24:08.865Z,32.41
2022-08-28T11:26:58.390Z,32.44
2022-08-28T11:30:03.583Z,32.50
2022-08-28T11:35:58.499Z,32.62
2022-08-28T11:39:14.523Z,32.68
2022-08-28T11:42:32.521Z,32.65
2022-08-28T11:45:06.253Z,32.67
2022-08-28T11:47:47.762Z,32.79
2022-08-28T11:50:29.228Z,32.84
2022-08-28T11:53:43.412Z,32.89
2022-08-28T11:56:51.570Z,33.11
2022-08-28T11:59:42.284Z,33.25
2022-08-28T12:02:58.550Z,33.28
2022-08-28T12:05:48.306Z,33.19
2022-08-28T12:08:58.985Z,33.07
2022-08-28T12:11:57.819Z,33.14
2022-08-28T12:15:01.388Z,33.31
2022-08-28T12:17:52.199Z,33.80
2022-08-28T12:20:34.141Z,35.48
2022-08-28T12:23:41.218Z,37.01
2022-08-28T12:26:24.490Z,37.60
2022-08-28T12:29:01.815Z,37.42
2022-08-28T12:32:17.145Z,36.91
2022-08-28T12:35:16.468Z,36.14
2022-08-28T12:38:03.342Z,35.46
2022-08-28T12:40:53.416Z,35.28
2022-08-28T12:43:41.726Z,35.00
2022-08-28T12:46:27.685Z,34.67
2022-08-28T12:49:06.654Z,34.49
2022-08-28T12:51:40.972Z,34.35
2022-08-28T12:54:20.267Z,34.34
2022-08-28T12:57:05.310Z,34.31
2022-08-28T12:59:42.219Z,34.34
2022-08-28T13:02:24.670Z,34.39
2022-08-28T13:05:02.066Z,34.46
2022-08-28T13:07:40.982Z,34.83
2022-08-28T13:10:25.357Z,34.85
2022-08-28T13:13:05.654Z,34.77
2022-08-28T13:15:55.780Z,34.66
2022-08-28T13:18:41.165Z,34.43
2022-08-28T13:21:38.059Z,34.12
2022-08-28T13:24:46.043Z,33.86
2022-08-28T13:27:26.029Z,33.63
2022-08-28T13:30:21.514Z,33.65
2022-08-28T13:33:02.493Z,33.72
2022-08-28T13:35:42.385Z,33.77
2022-08-28T13:38:23.311Z,33.75
2022-08-28T13:41:06.385Z,33.60
2022-08-28T13:43:49.038Z,33.60
2022-08-28T13:46:31.668Z,33.51
2022-08-28T13:49:05.005Z,33.46
2022-08-28T13:51:39.558Z,33.29
2022-08-28T13:54:13.585Z,33.06
2022-08-28T13:56:47.402Z,33.01
2022-08-28T13:59:23.657Z,33.03
2022-08-28T14:02:18.334Z,33.06
2022-08-28T14:04:52.032Z,33.06
2022-08-28T14:07:25.581Z,33.14
2022-08-28T14:09:59.051Z,33.18
2022-08-28T14:12:33.636Z,33.19
2022-08-28T14:15:08.562Z,33.22
2022-08-28T14:17:42.310Z,33.20
2022-08-28T14:20:16.706Z,33.16
2022-08-28T14:22:50.251Z,33.08
2022-08-28T14:25:23.937Z,33.05
2022-08-28T14:27:57.543Z,33.08
2022-08-28T14:30:31.358Z,33.13
2022-08-28T14:33:04.766Z,33.18
2022-08-28T14:35:42.092Z,33.25
2022-08-28T14:38:16.588Z,33.31
2022-08-28T14:40:50.781Z,33.39
2022-08-28T14:43:28.773Z,33.45
2022-08-28T14:46:02.692Z,33.51
2022-08-28T14:48:36.622Z,33.52
2022-08-28T14:51:09.855Z,33.54
2022-08-28T14:53:43.596Z,33.53
2022-08-28T14:56:17.258Z,33.47
2022-08-28T14:58:50.993Z,33.42
2022-08-28T15:01:39.557Z,33.37
2022-08-28T15:04:17.064Z,33.28
2022-08-28T15:06:51.826Z,33.19
2022-08-28T15:09:28.704Z,33.10
2022-08-28T15:12:02.431Z,33.07
2022-08-28T15:14:35.878Z,33.06
2022-08-28T15:17:09.908Z,32.95
2022-08-28T15:19:43.571Z,32.84
2022-08-28T15:22:27.129Z,32.79
2022-08-28T15:25:01.886Z,32.70
2022-08-28T15:27:35.396Z,32.58
2022-08-28T15:30:11.976Z,32.49
2022-08-28T15:32:46.532Z,32.40
2022-08-28T15:35:20.098Z,32.33
2022-08-28T15:37:53.931Z,32.25
2022-08-28T15:40:45.356Z,32.21
2022-08-28T15:43:18.962Z,32.17
2022-08-28T15:45:52.327Z,32.11
2022-08-28T15:48:25.515Z,32.02
2022-08-28T15:50:58.920Z,31.94
2022-08-28T15:53:34.264Z,31.89
2022-08-28T15:56:07.870Z,31.84
2022-08-28T15:58:44.355Z,31.82
2022-08-28T16:01:17.965Z,31.81
2022-08-28T16:03:51.444Z,31.79
2022-08-28T16:06:25.188Z,31.75
2022-08-28T16:08:59.064Z,31.69
2022-08-28T16:11:33.838Z,31.60
2022-08-28T16:14:07.261Z,31.48
2022-08-28T16:16:40.890Z,31.37
2022-08-28T16:19:19.986Z,31.30
2022-08-28T16:21:54.039Z,31.24
2022-08-28T16:24:33.292Z,31.17
2022-08-28T16:27:09.665Z,31.08
2022-08-28T16:29:49.577Z,30.99
2022-08-28T16:32:27.285Z,30.92
2022-08-28T16:35:03.108Z,30.86
2022-08-28T16:37:39.833Z,30.80
2022-08-28T16:40:15.820Z,30.75
2022-08-28T16:42:51.565Z,30.71
2022-08-28T16:45:30.074Z,30.66
2022-08-28T16:48:04.255Z,30.60
2022-08-28T16:50:37.804Z,30.55
2022-08-28T16:53:11.574Z,30.53
2022-08-28T16:55:47.402Z,30.50
2022-08-28T16:58:21.217Z,30.47
2022-08-28T17:00:55.944Z,30.44
2022-08-28T17:03:30.415Z,30.40
2022-08-28T17:06:10.122Z,30.35
2022-08-28T17:08:44.349Z,30.30
2022-08-28T17:11:18.283Z,30.27
2022-08-28T17:13:52.330Z,30.21
2022-08-28T17:16:27.757Z,30.18
2022-08-28T17:19:01.595Z,30.10
2022-08-28T17:21:53.086Z,30.04
2022-08-28T17:24:26.961Z,29.95
2022-08-28T17:27:05.468Z,29.83
2022-08-28T17:29:39.935Z,29.69
2022-08-28T17:32:15.001Z,29.37
2022-08-28T17:34:48.554Z,29.03
2022-08-28T17:37:24.181Z,28.82
2022-08-28T17:39:58.102Z,28.53
2022-08-28T17:42:32.111Z,28.35
2022-08-28T17:45:05.664Z,28.13
2022-08-28T17:47:39.759Z,27.86
2022-08-28T17:50:14.139Z,27.49
2022-08-28T17:52:47.609Z,27.20
2022-08-28T17:55:23.707Z,26.93
2022-08-28T17:57:56.993Z,26.80
2022-08-28T18:00:30.983Z,26.69
2022-08-28T18:03:04.735Z,26.55
2022-08-28T18:05:38.870Z,26.42
2022-08-28T18:08:12.499Z,26.33
2022-08-28T18:10:46.347Z,26.26
2022-08-28T18:13:20.644Z,26.20
2022-08-28T18:15:56.972Z,26.17
2022-08-28T18:18:36.616Z,26.13
2022-08-28T18:21:12.459Z,26.06
2022-08-28T18:23:46.280Z,25.94
2022-08-28T18:26:20.520Z,25.83
2022-08-28T18:28:54.406Z,25.76
2022-08-28T18:31:29.757Z,25.65
2022-08-28T18:34:06.341Z,25.59
2022-08-28T18:36:47.865Z,25.57
2022-08-28T18:39:29.220Z,25.52
2022-08-28T18:42:03.848Z,25.44
2022-08-28T18:44:38.055Z,25.36
2022-08-28T18:47:12.023Z,25.26
2022-08-28T18:49:46.009Z,25.22
2022-08-28T18:52:20.532Z,25.17
2022-08-28T18:54:54.211Z,25.10
2022-08-28T18:57:33.782Z,25.03
2022-08-28T19:00:10.086Z,24.97
2022-08-28T19:02:44.754Z,24.92
2022-08-28T19:05:19.145Z,24.83
2022-08-28T19:07:53.156Z,24.82
2022-08-28T19:10:35.102Z,24.80
2022-08-28T19:13:10.540Z,24.78
2022-08-28T19:15:45.070Z,24.78
2022-08-28T19:18:19.067Z,24.77
2022-08-28T19:20:53.289Z,24.75
2022-08-28T19:23:26.871Z,24.77
2022-08-28T19:26:00.818Z,24.76
2022-08-28T19:28:35.331Z,24.74
2022-08-28T19:31:09.288Z,24.72
2022-08-28T19:33:43.230Z,24.69
2022-08-28T19:36:17.344Z,24.65
2022-08-28T19:38:51.529Z,24.60
2022-08-28T19:41:25.299Z,24.54
2022-08-28T19:43:59.603Z,24.49
2022-08-28T19:46:34.663Z,24.46
2022-08-28T19:49:09.076Z,24.44
2022-08-28T19:51:43.626Z,24.42
2022-08-28T19:54:17.379Z,24.42
2022-08-28T19:56:51.274Z,24.43
2022-08-28T19:59:27.195Z,24.44
2022-08-28T20:02:01.304Z,24.45
2022-08-28T20:04:37.191Z,24.46
2022-08-28T20:07:10.823Z,24.46
2022-08-28T20:09:44.446Z,24.45
2022-08-28T20:12:18.509Z,24.43
2022-08-28T20:14:52.902Z,24.40
2022-08-28T20:17:27.028Z,24.38
2022-08-28T20:20:03.545Z,24.34
2022-08-28T20:22:38.368Z,24.32
2022-08-28T20:25:13.671Z,24.31
2022-08-28T20:27:48.221Z,24.31
2022-08-28T20:30:21.852Z,24.29
2022-08-28T20:32:55.899Z,24.29
2022-08-28T20:35:30.026Z,24.30
2022-08-28T20:38:03.593Z,24.30
2022-08-28T20:40:37.162Z,24.30
2022-08-28T20:43:10.754Z,24.28
2022-08-28T20:45:44.122Z,24.28
2022-08-28T20:48:17.579Z,24.26
2022-08-28T20:50:51.263Z,24.24
2022-08-28T20:53:37.530Z,24.23
2022-08-28T20:56:12.364Z,24.22
2022-08-28T20:58:45.715Z,24.21
2022-08-28T21:01:19.621Z,24.23
2022-08-28T21:03:53.430Z,24.25
2022-08-28T21:06:26.914Z,24.28
2022-08-28T21:09:00.632Z,24.30
2022-08-28T21:11:34.005Z,24.32
2022-08-28T21:14:07.090Z,24.32
2022-08-28T21:16:40.990Z,24.31
2022-08-28T21:19:16.638Z,24.29
2022-08-28T21:21:50.277Z,24.28
2022-08-28T21:24:25.142Z,24.26
2022-08-28T21:26:59.730Z,24.21
2022-08-28T21:29:33.324Z,24.19
2022-08-28T21:32:07.710Z,24.20
2022-08-28T21:34:41.148Z,24.21
2022-08-28T21:37:14.620Z,24.21
2022-08-28T21:39:48.038Z,24.20
2022-08-28T21:42:21.896Z,24.19
2022-08-28T21:44:55.584Z,24.17
2022-08-28T21:47:29.020Z,24.15
2022-08-28T21:50:02.375Z,24.13
2022-08-28T21:52:36.250Z,24.11
2022-08-28T21:55:12.852Z,24.12
2022-08-28T21:57:46.568Z,24.13
2022-08-28T22:00:23.283Z,24.10
2022-08-28T22:02:57.014Z,24.07
2022-08-28T22:05:30.735Z,24.02
2022-08-28T22:08:04.271Z,23.98
2022-08-28T22:10:40.490Z,23.94
2022-08-28T22:13:16.057Z,23.90
2022-08-28T22:15:50.098Z,23.88
2022-08-28T22:18:23.842Z,23.86
2022-08-28T22:21:30.415Z,23.82
2022-08-28T22:24:03.996Z,23.81
2022-08-28T22:26:37.669Z,23.82
2022-08-28T22:29:11.645Z,23.82
2022-08-28T22:31:46.103Z,23.82
2022-08-28T22:34:19.765Z,23.85
2022-08-28T22:36:53.664Z,23.88
2022-08-28T22:39:27.507Z,23.91
2022-08-28T22:42:00.706Z,23.91
2022-08-28T22:44:34.018Z,23.92
2022-08-28T22:47:07.556Z,23.91
2022-08-28T22:49:41.082Z,23.88
2022-08-28T22:52:15.681Z,23.88
2022-08-28T22:54:52.358Z,23.88
2022-08-28T22:57:27.713Z,23.89
2022-08-28T23:00:03.658Z,23.89
2022-08-28T23:02:37.035Z,23.85
2022-08-28T23:05:10.594Z,23.81
2022-08-28T23:07:44.590Z,23.77
2022-08-28T23:10:18.223Z,23.75
2022-08-28T23:12:51.474Z,23.71
2022-08-28T23:15:25.538Z,23.71
2022-08-28T23:17:59.181Z,23.70
2022-08-28T23:20:34.763Z,23.62
2022-08-28T23:23:09.240Z,23.58
2022-08-28T23:25:43.270Z,23.59
2022-08-28T23:28:17.004Z,23.60
2022-08-28T23:30:51.099Z,23.59
2022-08-28T23:33:24.385Z,23.59
2022-08-28T23:35:57.982Z,23.61
2022-08-28T23:38:33.083Z,23.61
2022-08-28T23:41:06.652Z,23.59
2022-08-28T23:43:40.611Z,23.58
2022-08-28T23:46:18.523Z,23.56
2022-08-28T23:48:52.590Z,23.55
2022-08-28T23:51:26.698Z,23.53
2022-08-28T23:54:00.457Z,23.55
2022-08-28T23:56:34.816Z,23.58
2022-08-28T23:59:12.194Z,23.58
